sensor_id;sensor_type;location;lat;lon;timestamp;temperature;humidity
22706;DHT22;11520;51.198;4.468;2023-08-07T00:00:06;14.80;99.90
22706;DHT22;11520;51.198;4.468;2023-08-07T00:02:34;14.70;99.90
22706;DHT22;11520;51.198;4.468;2023-08-07T00:05:00;14.70;99.90
22706;DHT22;11520;51.198;4.468;2023-08-07T00:07:26;14.70;99.90
22706;DHT22;11520;51.198;4.468;2023-08-07T00:09:51;14.60;99.90
22706;DHT22;11520;51.198;4.468;2023-08-07T00:12:17;14.60;99.90
22706;DHT22;11520;51.198;4.468;2023-08-07T00:14:44;14.50;99.90
22706;DHT22;11520;51.198;4.468;2023-08-07T00:17:09;14.50;99.90
22706;DHT22;11520;51.198;4.468;2023-08-07T00:19:35;14.40;99.90
22706;DHT22;11520;51.198;4.468;2023-08-07T00:22:00;14.50;99.90
22706;DHT22;11520;51.198;4.468;2023-08-07T00:24:26;14.40;99.90
22706;DHT22;11520;51.198;4.468;2023-08-07T00:26:51;14.40;99.90
22706;DHT22;11520;51.198;4.468;2023-08-07T00:29:17;14.40;99.90
22706;DHT22;11520;51.198;4.468;2023-08-07T00:31:43;14.50;99.90
22706;DHT22;11520;51.198;4.468;2023-08-07T00:34:08;14.60;99.90
22706;DHT22;11520;51.198;4.468;2023-08-07T00:36:35;14.60;99.90
22706;DHT22;11520;51.198;4.468;2023-08-07T00:39:02;14.60;99.90
22706;DHT22;11520;51.198;4.468;2023-08-07T00:41:31;14.70;99.90
22706;DHT22;11520;51.198;4.468;2023-08-07T00:43:57;14.70;99.90
22706;DHT22;11520;51.198;4.468;2023-08-07T00:46:23;14.70;99.90
22706;DHT22;11520;51.198;4.468;2023-08-07T00:48:51;14.80;99.90
22706;DHT22;11520;51.198;4.468;2023-08-07T00:51:17;14.80;99.90
22706;DHT22;11520;51.198;4.468;2023-08-07T00:53:43;14.80;99.90
22706;DHT22;11520;51.198;4.468;2023-08-07T00:56:09;14.70;99.90
22706;DHT22;11520;51.198;4.468;2023-08-07T00:58:34;14.70;99.90
22706;DHT22;11520;51.198;4.468;2023-08-07T01:01:01;14.60;99.90
22706;DHT22;11520;51.198;4.468;2023-08-07T01:03:27;14.60;99.90
22706;DHT22;11520;51.198;4.468;2023-08-07T01:05:53;14.50;99.90
22706;DHT22;11520;51.198;4.468;2023-08-07T01:08:19;14.50;99.90
22706;DHT22;11520;51.198;4.468;2023-08-07T01:13:45;14.40;99.90
22706;DHT22;11520;51.198;4.468;2023-08-07T01:16:21;14.30;99.90
22706;DHT22;11520;51.198;4.468;2023-08-07T01:18:48;14.30;99.90
22706;DHT22;11520;51.198;4.468;2023-08-07T01:21:21;14.30;99.90
22706;DHT22;11520;51.198;4.468;2023-08-07T01:23:47;14.30;99.90
22706;DHT22;11520;51.198;4.468;2023-08-07T01:26:18;14.40;99.90
22706;DHT22;11520;51.198;4.468;2023-08-07T01:29:03;14.30;99.90
22706;DHT22;11520;51.198;4.468;2023-08-07T01:31:33;14.40;99.90
22706;DHT22;11520;51.198;4.468;2023-08-07T01:34:04;14.40;99.90
22706;DHT22;11520;51.198;4.468;2023-08-07T01:36:32;14.40;99.90
22706;DHT22;11520;51.198;4.468;2023-08-07T01:38:59;14.30;99.90
22706;DHT22;11520;51.198;4.468;2023-08-07T01:41:26;14.40;99.90
22706;DHT22;11520;51.198;4.468;2023-08-07T01:43:52;14.40;99.90
22706;DHT22;11520;51.198;4.468;2023-08-07T01:46:19;14.40;99.90
22706;DHT22;11520;51.198;4.468;2023-08-07T01:48:45;14.40;99.90
22706;DHT22;11520;51.198;4.468;2023-08-07T01:51:10;14.50;99.90
22706;DHT22;11520;51.198;4.468;2023-08-07T01:53:36;14.50;99.90
22706;DHT22;11520;51.198;4.468;2023-08-07T01:56:01;14.50;99.90
22706;DHT22;11520;51.198;4.468;2023-08-07T01:58:27;14.50;99.90
22706;DHT22;11520;51.198;4.468;2023-08-07T02:00:53;14.50;99.90
22706;DHT22;11520;51.198;4.468;2023-08-07T02:03:19;14.40;99.90
22706;DHT22;11520;51.198;4.468;2023-08-07T02:05:46;14.40;99.90
22706;DHT22;11520;51.198;4.468;2023-08-07T02:08:12;14.40;99.90
22706;DHT22;11520;51.198;4.468;2023-08-07T02:10:37;14.30;99.90
22706;DHT22;11520;51.198;4.468;2023-08-07T02:13:03;14.30;99.90
22706;DHT22;11520;51.198;4.468;2023-08-07T02:15:29;14.20;99.90
22706;DHT22;11520;51.198;4.468;2023-08-07T02:17:54;14.20;99.90
22706;DHT22;11520;51.198;4.468;2023-08-07T02:20:20;14.20;99.90
22706;DHT22;11520;51.198;4.468;2023-08-07T02:22:46;14.20;99.90
22706;DHT22;11520;51.198;4.468;2023-08-07T02:25:11;14.20;99.90
22706;DHT22;11520;51.198;4.468;2023-08-07T02:27:37;14.20;99.90
22706;DHT22;11520;51.198;4.468;2023-08-07T02:30:03;14.20;99.90
22706;DHT22;11520;51.198;4.468;2023-08-07T02:32:29;14.10;99.90
22706;DHT22;11520;51.198;4.468;2023-08-07T02:34:56;14.10;99.90
22706;DHT22;11520;51.198;4.468;2023-08-07T02:37:22;14.10;99.90
22706;DHT22;11520;51.198;4.468;2023-08-07T02:39:47;14.10;99.90
22706;DHT22;11520;51.198;4.468;2023-08-07T02:42:13;14.10;99.90
22706;DHT22;11520;51.198;4.468;2023-08-07T02:44:38;14.20;99.90
22706;DHT22;11520;51.198;4.468;2023-08-07T02:47:05;14.20;99.90
22706;DHT22;11520;51.198;4.468;2023-08-07T02:49:31;14.30;99.90
22706;DHT22;11520;51.198;4.468;2023-08-07T02:51:57;14.30;99.90
22706;DHT22;11520;51.198;4.468;2023-08-07T02:54:23;14.30;99.90
22706;DHT22;11520;51.198;4.468;2023-08-07T02:56:49;14.30;99.90
22706;DHT22;11520;51.198;4.468;2023-08-07T02:59:15;14.30;99.90
22706;DHT22;11520;51.198;4.468;2023-08-07T03:01:43;14.30;99.90
22706;DHT22;11520;51.198;4.468;2023-08-07T03:04:09;14.40;99.90
22706;DHT22;11520;51.198;4.468;2023-08-07T03:06:34;14.40;99.90
22706;DHT22;11520;51.198;4.468;2023-08-07T03:09:00;14.40;99.90
22706;DHT22;11520;51.198;4.468;2023-08-07T03:11:25;14.40;99.90
22706;DHT22;11520;51.198;4.468;2023-08-07T03:13:51;14.50;99.90
22706;DHT22;11520;51.198;4.468;2023-08-07T03:16:18;14.50;99.90
22706;DHT22;11520;51.198;4.468;2023-08-07T03:18:43;14.50;99.90
22706;DHT22;11520;51.198;4.468;2023-08-07T03:21:09;14.60;99.90
22706;DHT22;11520;51.198;4.468;2023-08-07T03:23:35;14.70;99.90
22706;DHT22;11520;51.198;4.468;2023-08-07T03:26:09;14.70;99.90
22706;DHT22;11520;51.198;4.468;2023-08-07T03:28:35;14.80;99.90
22706;DHT22;11520;51.198;4.468;2023-08-07T03:31:01;14.70;99.90
22706;DHT22;11520;51.198;4.468;2023-08-07T03:33:27;14.80;99.90
22706;DHT22;11520;51.198;4.468;2023-08-07T03:35:53;14.80;99.90
22706;DHT22;11520;51.198;4.468;2023-08-07T03:38:19;14.90;99.90
22706;DHT22;11520;51.198;4.468;2023-08-07T03:40:44;14.90;99.90
22706;DHT22;11520;51.198;4.468;2023-08-07T03:43:11;14.90;99.90
22706;DHT22;11520;51.198;4.468;2023-08-07T03:45:36;14.90;99.90
22706;DHT22;11520;51.198;4.468;2023-08-07T03:48:02;14.90;99.90
22706;DHT22;11520;51.198;4.468;2023-08-07T03:50:28;14.90;99.90
22706;DHT22;11520;51.198;4.468;2023-08-07T03:52:56;14.80;99.90
22706;DHT22;11520;51.198;4.468;2023-08-07T03:55:21;14.90;99.90
22706;DHT22;11520;51.198;4.468;2023-08-07T03:57:47;14.90;99.90
22706;DHT22;11520;51.198;4.468;2023-08-07T04:00:13;15.00;99.90
22706;DHT22;11520;51.198;4.468;2023-08-07T04:02:39;15.00;99.90
22706;DHT22;11520;51.198;4.468;2023-08-07T04:05:05;15.00;99.90
22706;DHT22;11520;51.198;4.468;2023-08-07T04:07:31;15.00;99.90
22706;DHT22;11520;51.198;4.468;2023-08-07T04:09:56;14.90;99.90
22706;DHT22;11520;51.198;4.468;2023-08-07T04:12:22;14.90;99.90
22706;DHT22;11520;51.198;4.468;2023-08-07T04:14:48;14.90;99.90
22706;DHT22;11520;51.198;4.468;2023-08-07T04:17:13;14.90;99.90
22706;DHT22;11520;51.198;4.468;2023-08-07T04:19:39;14.90;99.90
22706;DHT22;11520;51.198;4.468;2023-08-07T04:22:05;14.90;99.90
22706;DHT22;11520;51.198;4.468;2023-08-07T04:24:31;15.00;99.90
22706;DHT22;11520;51.198;4.468;2023-08-07T04:26:57;15.00;99.90
22706;DHT22;11520;51.198;4.468;2023-08-07T04:29:24;15.00;99.90
22706;DHT22;11520;51.198;4.468;2023-08-07T04:31:49;14.90;99.90
22706;DHT22;11520;51.198;4.468;2023-08-07T04:34:15;14.90;99.90
22706;DHT22;11520;51.198;4.468;2023-08-07T04:36:40;14.90;99.90
22706;DHT22;11520;51.198;4.468;2023-08-07T04:39:06;14.90;99.90
22706;DHT22;11520;51.198;4.468;2023-08-07T04:41:32;14.90;99.90
22706;DHT22;11520;51.198;4.468;2023-08-07T04:43:58;14.90;99.90
22706;DHT22;11520;51.198;4.468;2023-08-07T04:46:24;14.80;99.90
22706;DHT22;11520;51.198;4.468;2023-08-07T04:48:49;14.80;99.90
22706;DHT22;11520;51.198;4.468;2023-08-07T04:51:15;14.70;99.90
22706;DHT22;11520;51.198;4.468;2023-08-07T04:53:41;14.70;99.90
22706;DHT22;11520;51.198;4.468;2023-08-07T04:56:06;14.60;99.90
22706;DHT22;11520;51.198;4.468;2023-08-07T04:58:32;14.70;99.90
22706;DHT22;11520;51.198;4.468;2023-08-07T05:00:58;14.70;99.90
22706;DHT22;11520;51.198;4.468;2023-08-07T05:03:24;14.70;99.90
22706;DHT22;11520;51.198;4.468;2023-08-07T05:05:50;14.70;99.90
22706;DHT22;11520;51.198;4.468;2023-08-07T05:08:16;14.70;99.90
22706;DHT22;11520;51.198;4.468;2023-08-07T05:10:42;14.70;99.90
22706;DHT22;11520;51.198;4.468;2023-08-07T05:13:08;14.70;99.90
22706;DHT22;11520;51.198;4.468;2023-08-07T05:15:33;14.80;99.90
22706;DHT22;11520;51.198;4.468;2023-08-07T05:17:59;14.90;99.90
22706;DHT22;11520;51.198;4.468;2023-08-07T05:20:25;14.90;99.90
22706;DHT22;11520;51.198;4.468;2023-08-07T05:22:50;14.90;99.90
22706;DHT22;11520;51.198;4.468;2023-08-07T05:25:16;15.00;99.90
22706;DHT22;11520;51.198;4.468;2023-08-07T05:27:45;15.00;99.90
22706;DHT22;11520;51.198;4.468;2023-08-07T05:30:12;15.10;99.90
22706;DHT22;11520;51.198;4.468;2023-08-07T05:32:38;15.20;99.90
22706;DHT22;11520;51.198;4.468;2023-08-07T05:35:07;15.40;99.90
22706;DHT22;11520;51.198;4.468;2023-08-07T05:37:34;15.40;99.90
22706;DHT22;11520;51.198;4.468;2023-08-07T05:39:59;15.50;99.90
22706;DHT22;11520;51.198;4.468;2023-08-07T05:42:25;15.50;99.90
22706;DHT22;11520;51.198;4.468;2023-08-07T05:44:51;15.50;99.90
22706;DHT22;11520;51.198;4.468;2023-08-07T05:47:17;15.40;99.90
22706;DHT22;11520;51.198;4.468;2023-08-07T05:49:43;15.40;99.90
22706;DHT22;11520;51.198;4.468;2023-08-07T05:52:08;15.40;99.90
22706;DHT22;11520;51.198;4.468;2023-08-07T05:54:34;16.10;99.90
22706;DHT22;11520;51.198;4.468;2023-08-07T05:57:00;16.60;99.90
22706;DHT22;11520;51.198;4.468;2023-08-07T05:59:26;17.00;99.90
22706;DHT22;11520;51.198;4.468;2023-08-07T06:01:52;17.30;99.90
22706;DHT22;11520;51.198;4.468;2023-08-07T06:04:18;17.10;99.90
22706;DHT22;11520;51.198;4.468;2023-08-07T06:06:44;17.00;99.90
22706;DHT22;11520;51.198;4.468;2023-08-07T06:09:11;17.00;99.90
22706;DHT22;11520;51.198;4.468;2023-08-07T06:11:37;17.10;99.90
22706;DHT22;11520;51.198;4.468;2023-08-07T06:14:03;16.70;99.90
22706;DHT22;11520;51.198;4.468;2023-08-07T06:16:28;16.90;99.90
22706;DHT22;11520;51.198;4.468;2023-08-07T06:18:54;17.70;99.90
22706;DHT22;11520;51.198;4.468;2023-08-07T06:21:20;19.10;99.90
22706;DHT22;11520;51.198;4.468;2023-08-07T06:23:46;19.70;99.90
22706;DHT22;11520;51.198;4.468;2023-08-07T06:26:12;20.40;99.90
22706;DHT22;11520;51.198;4.468;2023-08-07T06:28:38;20.90;99.90
22706;DHT22;11520;51.198;4.468;2023-08-07T06:31:08;20.60;99.90
22706;DHT22;11520;51.198;4.468;2023-08-07T06:33:35;19.80;99.90
22706;DHT22;11520;51.198;4.468;2023-08-07T06:36:03;19.30;99.90
22706;DHT22;11520;51.198;4.468;2023-08-07T06:38:29;19.50;99.90
22706;DHT22;11520;51.198;4.468;2023-08-07T06:40:55;20.70;99.90
22706;DHT22;11520;51.198;4.468;2023-08-07T06:43:22;22.80;99.90
22706;DHT22;11520;51.198;4.468;2023-08-07T06:45:51;24.30;99.90
22706;DHT22;11520;51.198;4.468;2023-08-07T06:48:19;24.50;99.90
22706;DHT22;11520;51.198;4.468;2023-08-07T06:50:47;24.90;95.80
22706;DHT22;11520;51.198;4.468;2023-08-07T06:53:13;24.40;99.10
22706;DHT22;11520;51.198;4.468;2023-08-07T06:55:38;25.30;96.30
22706;DHT22;11520;51.198;4.468;2023-08-07T06:58:04;26.50;92.30
22706;DHT22;11520;51.198;4.468;2023-08-07T07:00:29;25.90;88.60
22706;DHT22;11520;51.198;4.468;2023-08-07T07:02:55;24.60;95.30
22706;DHT22;11520;51.198;4.468;2023-08-07T07:05:22;24.40;96.30
22706;DHT22;11520;51.198;4.468;2023-08-07T07:07:50;24.80;94.80
22706;DHT22;11520;51.198;4.468;2023-08-07T07:10:15;25.20;92.40
22706;DHT22;11520;51.198;4.468;2023-08-07T07:12:42;24.70;91.60
22706;DHT22;11520;51.198;4.468;2023-08-07T07:15:09;23.00;97.80
22706;DHT22;11520;51.198;4.468;2023-08-07T07:17:35;22.40;99.90
22706;DHT22;11520;51.198;4.468;2023-08-07T07:20:01;21.80;99.90
22706;DHT22;11520;51.198;4.468;2023-08-07T07:22:26;20.90;99.90
22706;DHT22;11520;51.198;4.468;2023-08-07T07:24:54;20.50;99.90
22706;DHT22;11520;51.198;4.468;2023-08-07T07:27:21;20.10;99.90
22706;DHT22;11520;51.198;4.468;2023-08-07T07:29:48;20.10;99.90
22706;DHT22;11520;51.198;4.468;2023-08-07T07:32:13;21.30;99.90
22706;DHT22;11520;51.198;4.468;2023-08-07T07:34:39;22.40;99.90
22706;DHT22;11520;51.198;4.468;2023-08-07T07:37:05;22.70;99.90
22706;DHT22;11520;51.198;4.468;2023-08-07T07:39:31;22.30;99.90
22706;DHT22;11520;51.198;4.468;2023-08-07T07:41:57;22.80;99.90
22706;DHT22;11520;51.198;4.468;2023-08-07T07:44:22;22.80;99.90
22706;DHT22;11520;51.198;4.468;2023-08-07T07:46:48;23.30;99.90
22706;DHT22;11520;51.198;4.468;2023-08-07T07:49:14;24.20;99.90
22706;DHT22;11520;51.198;4.468;2023-08-07T07:51:40;25.70;97.40
22706;DHT22;11520;51.198;4.468;2023-08-07T07:54:06;25.10;94.00
22706;DHT22;11520;51.198;4.468;2023-08-07T07:56:32;24.20;96.20
22706;DHT22;11520;51.198;4.468;2023-08-07T07:58:59;23.50;98.20
22706;DHT22;11520;51.198;4.468;2023-08-07T08:01:24;22.20;99.90
22706;DHT22;11520;51.198;4.468;2023-08-07T08:03:50;20.60;99.90
22706;DHT22;11520;51.198;4.468;2023-08-07T08:06:18;20.80;99.90
22706;DHT22;11520;51.198;4.468;2023-08-07T08:08:44;21.10;99.90
22706;DHT22;11520;51.198;4.468;2023-08-07T08:11:09;21.20;99.90
22706;DHT22;11520;51.198;4.468;2023-08-07T08:13:35;21.90;99.90
22706;DHT22;11520;51.198;4.468;2023-08-07T08:16:05;22.90;99.90
22706;DHT22;11520;51.198;4.468;2023-08-07T08:18:31;24.30;99.90
22706;DHT22;11520;51.198;4.468;2023-08-07T08:20:57;25.40;93.70
22706;DHT22;11520;51.198;4.468;2023-08-07T08:23:22;25.00;91.90
22706;DHT22;11520;51.198;4.468;2023-08-07T08:25:48;24.00;94.90
22706;DHT22;11520;51.198;4.468;2023-08-07T08:28:15;24.40;94.50
22706;DHT22;11520;51.198;4.468;2023-08-07T08:30:43;24.60;93.80
22706;DHT22;11520;51.198;4.468;2023-08-07T08:33:08;25.00;92.00
22706;DHT22;11520;51.198;4.468;2023-08-07T08:35:38;26.00;87.50
22706;DHT22;11520;51.198;4.468;2023-08-07T08:38:04;25.30;90.70
22706;DHT22;11520;51.198;4.468;2023-08-07T08:40:34;26.70;88.90
22706;DHT22;11520;51.198;4.468;2023-08-07T08:43:02;26.90;82.70
22706;DHT22;11520;51.198;4.468;2023-08-07T08:45:30;26.60;82.10
22706;DHT22;11520;51.198;4.468;2023-08-07T08:48:03;27.80;77.00
22706;DHT22;11520;51.198;4.468;2023-08-07T08:50:29;29.00;72.40
22706;DHT22;11520;51.198;4.468;2023-08-07T08:52:56;27.60;72.50
22706;DHT22;11520;51.198;4.468;2023-08-07T08:55:22;27.40;71.70
22706;DHT22;11520;51.198;4.468;2023-08-07T08:57:50;26.30;77.70
22706;DHT22;11520;51.198;4.468;2023-08-07T09:00:19;25.70;80.50
22706;DHT22;11520;51.198;4.468;2023-08-07T09:02:48;25.30;84.10
22706;DHT22;11520;51.198;4.468;2023-08-07T09:05:15;25.60;81.50
22706;DHT22;11520;51.198;4.468;2023-08-07T09:07:41;25.00;81.20
22706;DHT22;11520;51.198;4.468;2023-08-07T09:10:09;23.60;86.80
22706;DHT22;11520;51.198;4.468;2023-08-07T09:12:40;23.40;89.10
22706;DHT22;11520;51.198;4.468;2023-08-07T09:15:07;23.40;90.30
22706;DHT22;11520;51.198;4.468;2023-08-07T09:17:39;23.90;90.60
22706;DHT22;11520;51.198;4.468;2023-08-07T09:20:07;26.00;86.50
22706;DHT22;11520;51.198;4.468;2023-08-07T09:22:38;27.20;78.20
22706;DHT22;11520;51.198;4.468;2023-08-07T09:25:03;27.60;72.10
22706;DHT22;11520;51.198;4.468;2023-08-07T09:27:30;27.60;70.80
22706;DHT22;11520;51.198;4.468;2023-08-07T09:29:57;28.90;68.40
22706;DHT22;11520;51.198;4.468;2023-08-07T09:32:23;29.60;64.50
22706;DHT22;11520;51.198;4.468;2023-08-07T09:34:50;28.90;64.30
22706;DHT22;11520;51.198;4.468;2023-08-07T09:37:17;28.90;65.60
22706;DHT22;11520;51.198;4.468;2023-08-07T09:39:42;28.70;64.80
22706;DHT22;11520;51.198;4.468;2023-08-07T09:42:13;30.50;61.10
22706;DHT22;11520;51.198;4.468;2023-08-07T09:44:41;30.30;59.80
22706;DHT22;11520;51.198;4.468;2023-08-07T09:47:13;30.90;58.40
22706;DHT22;11520;51.198;4.468;2023-08-07T09:49:43;30.10;58.10
22706;DHT22;11520;51.198;4.468;2023-08-07T09:52:10;27.70;63.10
22706;DHT22;11520;51.198;4.468;2023-08-07T09:54:37;27.30;64.20
22706;DHT22;11520;51.198;4.468;2023-08-07T09:57:04;26.60;67.00
22706;DHT22;11520;51.198;4.468;2023-08-07T09:59:29;26.60;69.40
22706;DHT22;11520;51.198;4.468;2023-08-07T10:01:55;26.80;69.90
22706;DHT22;11520;51.198;4.468;2023-08-07T10:04:22;25.80;71.00
22706;DHT22;11520;51.198;4.468;2023-08-07T10:06:48;25.10;72.80
22706;DHT22;11520;51.198;4.468;2023-08-07T10:09:15;24.30;79.60
22706;DHT22;11520;51.198;4.468;2023-08-07T10:11:42;25.00;77.00
22706;DHT22;11520;51.198;4.468;2023-08-07T10:14:12;26.90;70.90
22706;DHT22;11520;51.198;4.468;2023-08-07T10:16:40;26.60;68.60
22706;DHT22;11520;51.198;4.468;2023-08-07T10:19:09;26.20;71.00
22706;DHT22;11520;51.198;4.468;2023-08-07T10:21:36;25.60;74.10
22706;DHT22;11520;51.198;4.468;2023-08-07T10:24:08;25.00;76.40
22706;DHT22;11520;51.198;4.468;2023-08-07T10:26:37;24.70;78.20
22706;DHT22;11520;51.198;4.468;2023-08-07T10:29:12;24.60;79.80
22706;DHT22;11520;51.198;4.468;2023-08-07T10:31:40;25.60;75.80
22706;DHT22;11520;51.198;4.468;2023-08-07T10:34:08;26.70;72.80
22706;DHT22;11520;51.198;4.468;2023-08-07T10:36:35;26.20;68.60
22706;DHT22;11520;51.198;4.468;2023-08-07T10:39:12;26.60;71.00
22706;DHT22;11520;51.198;4.468;2023-08-07T10:41:48;27.80;67.60
22706;DHT22;11520;51.198;4.468;2023-08-07T10:44:25;29.20;62.80
22706;DHT22;11520;51.198;4.468;2023-08-07T10:46:56;29.80;62.30
22706;DHT22;11520;51.198;4.468;2023-08-07T10:49:39;29.80;61.40
22706;DHT22;11520;51.198;4.468;2023-08-07T10:52:12;27.90;61.80
22706;DHT22;11520;51.198;4.468;2023-08-07T10:54:49;27.80;63.20
22706;DHT22;11520;51.198;4.468;2023-08-07T10:57:17;26.30;63.90
22706;DHT22;11520;51.198;4.468;2023-08-07T11:02:30;24.20;76.70
22706;DHT22;11520;51.198;4.468;2023-08-07T11:04:57;24.10;77.70
22706;DHT22;11520;51.198;4.468;2023-08-07T11:07:30;24.60;77.10
22706;DHT22;11520;51.198;4.468;2023-08-07T11:09:57;25.90;71.50
22706;DHT22;11520;51.198;4.468;2023-08-07T11:12:29;25.40;71.60
22706;DHT22;11520;51.198;4.468;2023-08-07T11:14:56;25.00;74.90
22706;DHT22;11520;51.198;4.468;2023-08-07T11:17:28;24.70;75.00
22706;DHT22;11520;51.198;4.468;2023-08-07T11:19:55;24.60;75.30
22706;DHT22;11520;51.198;4.468;2023-08-07T11:22:22;24.90;74.00
22706;DHT22;11520;51.198;4.468;2023-08-07T11:24:52;24.50;75.70
22706;DHT22;11520;51.198;4.468;2023-08-07T11:27:20;24.60;75.40
22706;DHT22;11520;51.198;4.468;2023-08-07T11:29:48;24.40;76.00
22706;DHT22;11520;51.198;4.468;2023-08-07T11:32:14;23.80;79.10
22706;DHT22;11520;51.198;4.468;2023-08-07T11:34:40;23.50;79.20
22706;DHT22;11520;51.198;4.468;2023-08-07T11:37:06;24.10;79.50
22706;DHT22;11520;51.198;4.468;2023-08-07T11:39:31;24.10;77.60
22706;DHT22;11520;51.198;4.468;2023-08-07T11:41:57;24.50;76.50
22706;DHT22;11520;51.198;4.468;2023-08-07T11:44:23;25.70;74.50
22706;DHT22;11520;51.198;4.468;2023-08-07T11:46:50;26.50;68.60
22706;DHT22;11520;51.198;4.468;2023-08-07T11:49:16;26.80;68.10
22706;DHT22;11520;51.198;4.468;2023-08-07T11:51:42;27.90;65.20
22706;DHT22;11520;51.198;4.468;2023-08-07T11:54:14;28.70;63.20
22706;DHT22;11520;51.198;4.468;2023-08-07T11:56:41;27.70;64.70
22706;DHT22;11520;51.198;4.468;2023-08-07T11:59:10;26.80;64.30
22706;DHT22;11520;51.198;4.468;2023-08-07T12:01:38;25.80;66.80
22706;DHT22;11520;51.198;4.468;2023-08-07T12:06:31;26.40;65.70
22706;DHT22;11520;51.198;4.468;2023-08-07T12:08:57;26.60;66.70
22706;DHT22;11520;51.198;4.468;2023-08-07T12:11:23;26.20;66.10
22706;DHT22;11520;51.198;4.468;2023-08-07T12:13:49;26.00;67.20
22706;DHT22;11520;51.198;4.468;2023-08-07T12:16:16;25.40;67.00
22706;DHT22;11520;51.198;4.468;2023-08-07T12:18:44;24.90;70.20
22706;DHT22;11520;51.198;4.468;2023-08-07T12:21:14;25.30;73.50
22706;DHT22;11520;51.198;4.468;2023-08-07T12:23:41;25.60;72.80
22706;DHT22;11520;51.198;4.468;2023-08-07T12:26:06;26.00;73.40
22706;DHT22;11520;51.198;4.468;2023-08-07T12:28:36;24.70;75.70
22706;DHT22;11520;51.198;4.468;2023-08-07T12:31:02;23.90;82.00
22706;DHT22;11520;51.198;4.468;2023-08-07T12:33:31;24.20;83.80
22706;DHT22;11520;51.198;4.468;2023-08-07T12:35:57;24.60;83.60
22706;DHT22;11520;51.198;4.468;2023-08-07T12:38:23;24.50;84.10
22706;DHT22;11520;51.198;4.468;2023-08-07T12:40:49;24.60;83.70
22706;DHT22;11520;51.198;4.468;2023-08-07T12:43:15;24.40;81.40
22706;DHT22;11520;51.198;4.468;2023-08-07T12:45:41;24.70;82.30
22706;DHT22;11520;51.198;4.468;2023-08-07T12:48:07;24.30;85.00
22706;DHT22;11520;51.198;4.468;2023-08-07T12:50:33;24.50;84.90
22706;DHT22;11520;51.198;4.468;2023-08-07T12:52:59;24.20;86.20
22706;DHT22;11520;51.198;4.468;2023-08-07T12:55:27;24.30;87.70
22706;DHT22;11520;51.198;4.468;2023-08-07T12:57:54;24.00;87.50
22706;DHT22;11520;51.198;4.468;2023-08-07T13:00:20;23.60;89.50
22706;DHT22;11520;51.198;4.468;2023-08-07T13:02:49;23.70;90.00
22706;DHT22;11520;51.198;4.468;2023-08-07T13:05:16;24.00;89.10
22706;DHT22;11520;51.198;4.468;2023-08-07T13:07:46;24.20;87.50
22706;DHT22;11520;51.198;4.468;2023-08-07T13:10:14;24.40;86.00
22706;DHT22;11520;51.198;4.468;2023-08-07T13:12:42;23.70;88.90
22706;DHT22;11520;51.198;4.468;2023-08-07T13:15:14;23.70;89.60
22706;DHT22;11520;51.198;4.468;2023-08-07T13:17:41;24.00;89.50
22706;DHT22;11520;51.198;4.468;2023-08-07T13:20:09;24.00;90.50
22706;DHT22;11520;51.198;4.468;2023-08-07T13:22:39;24.10;90.80
22706;DHT22;11520;51.198;4.468;2023-08-07T13:25:07;24.20;90.00
22706;DHT22;11520;51.198;4.468;2023-08-07T13:27:34;23.60;91.00
22706;DHT22;11520;51.198;4.468;2023-08-07T13:30:00;23.30;92.60
22706;DHT22;11520;51.198;4.468;2023-08-07T13:32:27;23.10;93.90
22706;DHT22;11520;51.198;4.468;2023-08-07T13:34:53;22.90;94.40
22706;DHT22;11520;51.198;4.468;2023-08-07T13:37:19;22.80;94.80
22706;DHT22;11520;51.198;4.468;2023-08-07T13:39:45;22.50;95.50
22706;DHT22;11520;51.198;4.468;2023-08-07T13:42:10;22.60;96.20
22706;DHT22;11520;51.198;4.468;2023-08-07T13:44:37;22.60;96.20
22706;DHT22;11520;51.198;4.468;2023-08-07T13:47:06;22.60;97.00
22706;DHT22;11520;51.198;4.468;2023-08-07T13:49:32;22.70;97.30
22706;DHT22;11520;51.198;4.468;2023-08-07T13:51:58;23.00;96.50
22706;DHT22;11520;51.198;4.468;2023-08-07T13:54:23;22.80;95.60
22706;DHT22;11520;51.198;4.468;2023-08-07T13:56:49;22.90;96.70
22706;DHT22;11520;51.198;4.468;2023-08-07T13:59:16;23.10;96.80
22706;DHT22;11520;51.198;4.468;2023-08-07T14:01:41;23.10;97.10
22706;DHT22;11520;51.198;4.468;2023-08-07T14:04:07;23.10;98.50
22706;DHT22;11520;51.198;4.468;2023-08-07T14:06:33;22.90;96.80
22706;DHT22;11520;51.198;4.468;2023-08-07T14:08:58;22.50;97.50
22706;DHT22;11520;51.198;4.468;2023-08-07T14:11:24;22.60;98.80
22706;DHT22;11520;51.198;4.468;2023-08-07T14:13:56;22.70;97.80
22706;DHT22;11520;51.198;4.468;2023-08-07T14:16:22;22.40;97.60
22706;DHT22;11520;51.198;4.468;2023-08-07T14:18:48;22.20;97.70
22706;DHT22;11520;51.198;4.468;2023-08-07T14:21:14;22.30;98.70
22706;DHT22;11520;51.198;4.468;2023-08-07T14:23:40;22.40;98.20
22706;DHT22;11520;51.198;4.468;2023-08-07T14:26:07;22.40;98.90
22706;DHT22;11520;51.198;4.468;2023-08-07T14:28:33;22.40;99.00
22706;DHT22;11520;51.198;4.468;2023-08-07T14:30:59;22.40;99.40
22706;DHT22;11520;51.198;4.468;2023-08-07T14:33:25;21.80;99.30
22706;DHT22;11520;51.198;4.468;2023-08-07T14:35:51;21.40;99.90
22706;DHT22;11520;51.198;4.468;2023-08-07T14:38:17;21.60;99.90
22706;DHT22;11520;51.198;4.468;2023-08-07T14:40:43;21.70;99.90
22706;DHT22;11520;51.198;4.468;2023-08-07T14:43:08;21.90;99.90
22706;DHT22;11520;51.198;4.468;2023-08-07T14:45:36;22.00;99.90
22706;DHT22;11520;51.198;4.468;2023-08-07T14:48:03;22.10;99.90
22706;DHT22;11520;51.198;4.468;2023-08-07T14:50:28;22.20;99.90
22706;DHT22;11520;51.198;4.468;2023-08-07T14:52:54;22.20;99.90
22706;DHT22;11520;51.198;4.468;2023-08-07T14:55:22;22.20;99.90
22706;DHT22;11520;51.198;4.468;2023-08-07T14:57:49;22.10;99.90
22706;DHT22;11520;51.198;4.468;2023-08-07T15:00:15;21.90;99.90
22706;DHT22;11520;51.198;4.468;2023-08-07T15:02:42;21.80;99.90
22706;DHT22;11520;51.198;4.468;2023-08-07T15:05:08;21.80;99.90
22706;DHT22;11520;51.198;4.468;2023-08-07T15:07:35;21.90;99.90
22706;DHT22;11520;51.198;4.468;2023-08-07T15:10:00;21.80;99.90
22706;DHT22;11520;51.198;4.468;2023-08-07T15:12:26;21.90;99.90
22706;DHT22;11520;51.198;4.468;2023-08-07T15:14:52;22.00;99.90
22706;DHT22;11520;51.198;4.468;2023-08-07T15:17:17;22.10;99.90
22706;DHT22;11520;51.198;4.468;2023-08-07T15:19:43;22.20;99.60
22706;DHT22;11520;51.198;4.468;2023-08-07T15:22:10;21.80;99.90
22706;DHT22;11520;51.198;4.468;2023-08-07T15:24:35;21.70;99.90
22706;DHT22;11520;51.198;4.468;2023-08-07T15:27:01;21.80;99.90
22706;DHT22;11520;51.198;4.468;2023-08-07T15:29:27;21.60;99.90
22706;DHT22;11520;51.198;4.468;2023-08-07T15:31:54;21.70;99.90
22706;DHT22;11520;51.198;4.468;2023-08-07T15:34:19;21.80;99.90